Time;durP1;ratioP1;P1;durP2;ratioP2;P2;SDS_P1;SDS_P2;PMS_P1;PMS_P2;Temp;Humidity;BMP_temperature;BMP_pressure;BME280_temperature;BME280_humidity;BME280_pressure;Samples;Min_cycle;Max_cycle;Signal;HPM_P1;HPM_P2
2022/01/14 00:00:59;;;;;;;29.75;15.45;;;;;;;3.43;83.68;101939.59;5066591;28;20099;-89
2022/01/14 00:03:25;;;;;;;31.23;14.13;;;;;;;3.39;83.90;101919.34;5066498;28;20127;-88
2022/01/14 00:05:50;;;;;;;26.80;12.43;;;;;;;3.44;83.53;101916.16;5066456;28;20021;-87
2022/01/14 00:08:15;;;;;;;25.85;14.77;;;;;;;3.43;82.84;101925.25;5066896;28;20059;-88
2022/01/14 00:10:47;;;;;;;35.25;13.95;;;;;;;3.33;83.84;101930.78;5048362;28;20495;-88
2022/01/14 00:13:37;;;;;;;25.88;14.50;;;;;;;3.43;83.42;101919.84;5048314;28;20044;-88
2022/01/14 00:15:58;;;;;;;27.20;12.95;;;;;;;3.38;83.42;101915.78;5066498;28;20043;-87
2022/01/14 00:18:23;;;;;;;32.35;13.68;;;;;;;3.32;83.58;101924.53;5048424;28;20029;-88
2022/01/14 00:20:48;;;;;;;21.05;12.82;;;;;;;3.24;83.95;101916.41;5048517;28;20562;-88
2022/01/14 00:23:14;;;;;;;25.67;13.40;;;;;;;3.16;84.41;101909.13;5066575;28;20021;-88
2022/01/14 00:33:51;;;;;;;25.80;13.82;;;;;;;3.36;83.45;101898.94;5065715;28;20451;-86
2022/01/14 00:36:16;;;;;;;21.10;12.00;;;;;;;3.24;84.19;101905.63;5066325;28;20025;-87
2022/01/14 00:38:41;;;;;;;30.25;15.57;;;;;;;3.25;84.39;101900.06;5066292;28;20025;-88
2022/01/14 00:41:08;;;;;;;27.38;13.73;;;;;;;3.32;83.73;101894.88;5065800;28;20527;-88
2022/01/14 00:43:34;;;;;;;29.45;13.75;;;;;;;3.41;83.80;101894.91;5047725;28;20043;-87
2022/01/14 00:45:59;;;;;;;33.60;15.93;;;;;;;3.24;83.87;101890.28;5066122;28;20017;-87
2022/01/14 00:48:25;;;;;;;21.42;13.13;;;;;;;3.31;84.21;101890.50;5065304;28;20402;-88
2022/01/14 00:50:50;;;;;;;23.45;13.65;;;;;;;3.20;84.23;101885.38;5066386;28;20025;-86
2022/01/14 00:53:16;;;;;;;27.98;13.85;;;;;;;3.18;84.90;101890.09;5065178;28;20630;-88
2022/01/14 00:55:54;;;;;;;24.63;14.48;;;;;;;3.30;84.42;101888.78;5065744;28;20034;-87
2022/01/14 01:01:03;;;;;;;22.33;14.27;;;;;;;3.24;84.47;101889.44;5063000;28;20549;-88
2022/01/14 01:03:29;;;;;;;27.77;12.52;;;;;;;3.15;85.20;101891.28;5065713;28;20036;-88
2022/01/14 01:05:54;;;;;;;25.95;14.52;;;;;;;3.35;84.82;101883.78;5064069;28;20419;-87
2022/01/14 01:08:23;;;;;;;25.48;14.23;;;;;;;3.31;84.30;101871.63;5065852;28;20476;-88
2022/01/14 01:10:50;;;;;;;27.30;14.68;;;;;;;3.49;84.19;101876.03;5064722;28;20115;-88
2022/01/14 01:13:24;;;;;;;25.70;13.25;;;;;;;3.37;83.92;101873.66;5065614;28;20029;-87
2022/01/14 01:15:49;;;;;;;;;;;;;;;3.45;83.97;101869.28;5064006;28;20016;-87
2022/01/14 01:18:16;;;;;;;24.25;15.30;;;;;;;3.33;84.11;101861.50;5065367;28;19921;-87
2022/01/14 01:23:45;;;;;;;26.75;14.15;;;;;;;3.36;84.73;101863.88;5062182;28;20097;-88
2022/01/14 01:26:19;;;;;;;24.77;13.70;;;;;;;3.28;84.95;101871.94;5065794;28;20032;-87
2022/01/14 01:29:01;;;;;;;29.15;13.25;;;;;;;3.28;85.30;101874.63;5063099;28;20024;-87
2022/01/14 01:31:38;;;;;;;22.20;12.93;;;;;;;3.24;85.07;101878.66;5062928;28;20032;-87
2022/01/14 01:34:06;;;;;;;22.27;12.68;;;;;;;3.33;85.04;101883.09;5062401;28;20040;-87
2022/01/14 01:36:32;;;;;;;20.90;11.73;;;;;;;3.23;85.66;101882.38;5064601;28;20059;-87
2022/01/14 01:38:58;;;;;;;23.65;11.95;;;;;;;3.12;85.47;101870.88;5064937;28;20021;-87
2022/01/14 01:41:24;;;;;;;22.40;11.68;;;;;;;3.14;85.97;101871.56;5046847;28;20111;-87
2022/01/14 01:43:54;;;;;;;26.00;12.60;;;;;;;3.16;85.55;101876.78;5065167;28;20028;-87
2022/01/14 01:46:20;;;;;;;27.95;13.43;;;;;;;3.14;86.09;101879.66;5065261;28;20028;-88
2022/01/14 01:48:47;;;;;;;31.88;15.13;;;;;;;3.20;86.01;101874.59;5064910;28;20466;-88
2022/01/14 01:51:13;;;;;;;21.33;14.55;;;;;;;3.08;86.23;101872.22;5064596;28;20021;-88
2022/01/14 01:53:38;;;;;;;29.60;14.60;;;;;;;3.06;86.28;101882.31;5064308;28;20027;-87
2022/01/14 01:56:04;;;;;;;30.25;15.27;;;;;;;3.09;86.53;101881.16;5064125;28;20491;-87
2022/01/14 01:58:29;;;;;;;25.75;14.25;;;;;;;3.26;85.67;101887.44;5064591;28;20044;-88
2022/01/14 02:00:54;;;;;;;28.77;15.50;;;;;;;3.01;86.25;101892.75;5065004;28;20028;-87
2022/01/14 02:03:20;;;;;;;25.55;14.73;;;;;;;3.01;86.06;101900.84;5064439;28;20542;-87
2022/01/14 02:05:46;;;;;;;25.55;13.35;;;;;;;2.99;85.61;101900.16;5064927;28;20104;-88
2022/01/14 02:08:12;;;;;;;22.67;14.45;;;;;;;3.10;85.94;101902.53;5064688;28;20052;-87
2022/01/14 02:10:38;;;;;;;30.48;13.70;;;;;;;3.17;84.95;101900.06;5065314;28;20044;-87
2022/01/14 02:13:04;;;;;;;29.33;16.00;;;;;;;3.15;83.95;101897.50;5064915;28;20041;-87
2022/01/14 02:23:26;;;;;;;26.27;15.73;;;;;;;2.87;85.22;101900.41;5087295;28;20178;-86
2022/01/14 02:25:51;;;;;;;26.13;12.35;;;;;;;2.81;85.32;101901.03;5089677;28;20024;-87
2022/01/14 02:28:18;;;;;;;27.00;14.32;;;;;;;2.68;85.38;101901.50;5088955;28;20417;-87
2022/01/14 02:30:46;;;;;;;25.92;13.25;;;;;;;2.64;85.31;101898.28;5081019;28;20762;-88
2022/01/14 02:33:13;;;;;;;26.40;13.13;;;;;;;2.73;85.09;101898.31;5068754;28;20106;-88
2022/01/14 02:35:40;;;;;;;26.20;13.77;;;;;;;2.40;85.91;101883.63;5068631;28;20028;-88
2022/01/14 02:38:09;;;;;;;33.55;16.40;;;;;;;2.36;86.43;101882.25;5069060;28;20297;-87
2022/01/14 02:40:34;;;;;;;22.90;13.57;;;;;;;2.22;87.02;101871.06;5050606;28;20434;-87
2022/01/14 02:43:01;;;;;;;28.42;15.20;;;;;;;2.40;87.08;101872.88;5050873;28;20098;-88
2022/01/14 02:45:30;;;;;;;31.00;14.82;;;;;;;2.44;85.85;101863.47;5068117;28;20040;-87
2022/01/14 02:47:56;;;;;;;29.25;14.60;;;;;;;2.58;85.35;101863.91;5068972;28;20589;-88
2022/01/14 02:50:23;;;;;;;28.50;14.45;;;;;;;2.51;85.11;101869.06;5068253;28;20111;-87
2022/01/14 02:55:20;;;;;;;32.22;15.40;;;;;;;2.30;85.41;101861.34;5069187;28;20036;-87
2022/01/14 02:57:51;;;;;;;27.20;15.98;;;;;;;2.28;85.65;101869.59;5068329;28;20495;-87
2022/01/14 03:00:19;;;;;;;23.90;14.35;;;;;;;2.24;87.30;101856.63;5068711;28;20032;-87
2022/01/14 03:02:47;;;;;;;32.15;16.02;;;;;;;2.36;86.08;101852.63;5068374;28;20518;-88
2022/01/14 03:05:13;;;;;;;26.38;14.02;;;;;;;2.41;86.53;101853.03;5050605;28;20021;-88
2022/01/14 03:07:40;;;;;;;25.20;17.25;;;;;;;2.40;85.75;101854.00;5068289;28;20077;-88
2022/01/14 03:10:06;;;;;;;27.77;13.07;;;;;;;2.44;84.94;101851.88;5068476;28;20089;-88
2022/01/14 03:12:33;;;;;;;29.60;16.52;;;;;;;2.46;85.91;101847.19;5068310;28;20475;-87
2022/01/14 03:14:58;;;;;;;24.88;13.77;;;;;;;2.53;85.50;101836.59;5068160;28;20068;-88
2022/01/14 03:17:36;;;;;;;27.65;16.23;;;;;;;2.61;85.40;101847.41;5067736;28;20035;-87
2022/01/14 03:20:04;;;;;;;28.23;13.98;;;;;;;2.64;84.27;101841.72;5049727;28;20241;-87
2022/01/14 03:22:34;;;;;;;26.15;13.60;;;;;;;2.46;85.30;101833.72;5068372;28;20060;-88
2022/01/14 03:27:44;;;;;;;24.17;14.40;;;;;;;2.45;85.47;101822.09;5068226;28;20097;-87
2022/01/14 03:30:10;;;;;;;28.85;15.45;;;;;;;2.49;85.51;101816.38;5067835;28;20021;-86
2022/01/14 03:32:35;;;;;;;29.35;15.35;;;;;;;2.60;84.76;101808.03;5068007;28;20428;-88
2022/01/14 03:35:00;;;;;;;26.30;14.18;;;;;;;2.55;84.81;101815.72;5067331;28;20079;-88
2022/01/14 03:37:25;;;;;;;24.25;14.27;;;;;;;2.51;84.92;101811.66;5067565;28;20024;-87
2022/01/14 03:39:51;;;;;;;25.77;15.25;;;;;;;2.45;85.09;101810.47;5049817;28;20039;-88
2022/01/14 03:42:16;;;;;;;33.78;13.90;;;;;;;2.53;84.86;101813.19;5068670;28;20029;-88
2022/01/14 03:44:41;;;;;;;27.55;13.48;;;;;;;2.47;84.77;101802.22;5087670;28;20028;-88
2022/01/14 03:47:07;;;;;;;29.50;15.35;;;;;;;2.38;85.02;101796.78;5074780;28;20054;-87
2022/01/14 03:49:32;;;;;;;24.42;12.98;;;;;;;2.43;84.85;101802.56;5067702;28;20020;-88
2022/01/14 03:51:57;;;;;;;27.52;14.95;;;;;;;2.57;84.51;101797.56;5067846;28;20056;-87
2022/01/14 03:54:23;;;;;;;22.92;11.13;;;;;;;2.42;84.45;101795.47;5067130;28;20032;-87
2022/01/14 03:56:49;;;;;;;24.63;13.05;;;;;;;2.47;84.97;101796.84;5067760;28;20084;-87
2022/01/14 03:59:14;;;;;;;25.45;12.85;;;;;;;2.42;84.08;101790.06;5066754;28;20105;-87
2022/01/14 04:01:39;;;;;;;19.33;10.87;;;;;;;2.25;84.25;101793.69;5051089;28;20499;-87
2022/01/14 04:04:04;;;;;;;24.23;12.63;;;;;;;2.20;84.78;101791.47;5046865;28;20270;-88
2022/01/14 04:06:30;;;;;;;22.35;13.73;;;;;;;2.19;84.59;101795.19;5047319;28;20096;-88
2022/01/14 04:08:56;;;;;;;23.60;13.85;;;;;;;2.51;83.54;101799.06;5047478;28;20060;-88
2022/01/14 04:11:22;;;;;;;25.52;13.90;;;;;;;2.42;83.48;101800.84;5062371;28;20040;-88
2022/01/14 04:13:51;;;;;;;28.92;13.25;;;;;;;2.44;83.83;101815.00;5058248;28;20372;-88
2022/01/14 04:16:19;;;;;;;23.80;14.35;;;;;;;2.25;84.44;101808.00;5066783;28;20032;-88
2022/01/14 04:18:45;;;;;;;28.27;14.63;;;;;;;2.15;84.91;101801.88;5066906;28;20105;-88
2022/01/14 04:21:11;;;;;;;29.30;14.68;;;;;;;2.11;85.08;101809.44;5066832;28;20028;-88
2022/01/14 04:23:52;;;;;;;29.42;14.82;;;;;;;1.97;85.60;101803.59;5066977;28;20028;-87
2022/01/14 04:26:17;;;;;;;23.90;13.93;;;;;;;2.04;85.40;101811.03;5067324;28;20045;-87
2022/01/14 04:28:42;;;;;;;23.52;13.63;;;;;;;2.09;85.21;101812.28;5064947;28;20034;-87
2022/01/14 04:31:09;;;;;;;25.25;13.15;;;;;;;1.89;85.46;101817.00;5053872;28;20021;-87
2022/01/14 04:33:36;;;;;;;31.75;15.55;;;;;;;1.89;85.71;101821.53;5046304;28;20071;-88
2022/01/14 04:36:03;;;;;;;20.77;12.25;;;;;;;1.81;86.29;101819.63;5046887;28;20036;-87
2022/01/14 04:38:30;;;;;;;21.65;13.55;;;;;;;1.73;85.62;101820.38;5046429;28;20025;-88
2022/01/14 04:40:56;;;;;;;26.73;14.23;;;;;;;1.68;85.76;101809.25;5028717;28;20054;-87
2022/01/14 04:43:22;;;;;;;32.33;16.35;;;;;;;1.71;86.30;101820.56;5035433;28;20032;-87
2022/01/14 04:48:31;;;;;;;35.55;18.55;;;;;;;1.78;85.67;101814.56;5066491;28;20028;-87
2022/01/14 04:50:57;;;;;;;28.95;14.10;;;;;;;1.63;86.47;101812.41;5066139;28;20040;-87
2022/01/14 04:53:22;;;;;;;27.05;14.68;;;;;;;1.61;86.40;101819.78;5066113;28;20078;-87
2022/01/14 04:55:49;;;;;;;30.67;15.45;;;;;;;1.59;86.76;101816.41;5066300;28;20020;-86
2022/01/14 04:58:14;;;;;;;30.23;17.55;;;;;;;1.62;86.48;101816.09;5065923;28;20036;-88
2022/01/14 05:00:40;;;;;;;33.58;18.05;;;;;;;1.82;85.96;101826.69;5065724;28;20787;-87
2022/01/14 05:03:06;;;;;;;31.73;15.98;;;;;;;1.87;84.49;101816.31;5047964;28;20028;-87
2022/01/14 05:05:35;;;;;;;24.50;16.17;;;;;;;1.68;85.78;101818.19;5048424;28;20074;-88
2022/01/14 05:08:00;;;;;;;27.80;16.02;;;;;;;1.45;86.96;101812.41;5047996;28;20032;-86
2022/01/14 05:12:55;;;;;;;27.58;17.00;;;;;;;1.25;87.54;101799.13;5065545;28;20361;-88
2022/01/14 05:15:20;;;;;;;29.23;14.48;;;;;;;1.32;87.03;101797.53;5065660;28;20055;-87
2022/01/14 05:17:47;;;;;;;36.95;16.88;;;;;;;1.18;87.42;101792.69;5065619;28;20029;-87
2022/01/14 05:20:13;;;;;;;25.13;14.27;;;;;;;1.11;87.90;101804.03;5067143;28;20577;-87
2022/01/14 05:22:39;;;;;;;28.13;16.45;;;;;;;1.24;87.13;101802.81;5086197;28;20028;-87
2022/01/14 05:25:06;;;;;;;26.20;15.95;;;;;;;1.27;86.78;101800.66;5085851;28;20028;-86
2022/01/14 05:27:32;;;;;;;25.88;15.13;;;;;;;1.45;86.70;101802.50;5086111;28;20755;-87
2022/01/14 05:32:50;;;;;;;29.08;15.82;;;;;;;1.19;86.94;101805.09;5063601;28;20042;-88
2022/01/14 05:35:18;;;;;;;28.60;16.25;;;;;;;1.13;87.93;101801.19;5045668;28;20037;-87
2022/01/14 05:37:44;;;;;;;24.83;16.05;;;;;;;1.34;87.84;101805.44;5045442;28;20021;-87
2022/01/14 05:40:11;;;;;;;25.17;16.23;;;;;;;1.24;86.67;101803.66;5045904;28;20086;-84
2022/01/14 05:42:37;;;;;;;26.45;16.48;;;;;;;1.32;86.66;101804.75;5045087;28;20033;-88
2022/01/14 05:45:04;;;;;;;31.23;17.30;;;;;;;1.18;87.36;101804.25;5045415;28;20578;-88
2022/01/14 05:47:30;;;;;;;26.23;15.82;;;;;;;1.22;86.18;101800.25;5045412;28;20060;-87
2022/01/14 05:49:55;;;;;;;33.15;17.38;;;;;;;1.16;86.93;101812.47;5045502;28;20644;-87
2022/01/14 05:52:21;;;;;;;33.05;18.02;;;;;;;1.25;86.63;101799.97;5045143;28;20791;-87
2022/01/14 05:54:47;;;;;;;29.40;18.58;;;;;;;0.90;87.44;101806.97;5045482;28;20478;-87
2022/01/14 05:57:12;;;;;;;40.63;22.08;;;;;;;0.82;87.60;101802.34;5027446;28;20025;-88
2022/01/14 05:59:38;;;;;;;30.52;18.02;;;;;;;0.89;88.36;101790.03;5045089;28;20096;-87
2022/01/14 06:02:03;;;;;;;29.80;18.77;;;;;;;0.63;88.38;101798.75;5044865;28;20315;-86
2022/01/14 06:04:28;;;;;;;36.63;20.05;;;;;;;0.61;88.06;101797.22;5045063;28;20037;-87
2022/01/14 06:06:54;;;;;;;28.95;16.80;;;;;;;0.33;88.65;101796.19;5027403;28;20029;-88
2022/01/14 06:09:19;;;;;;;30.20;17.13;;;;;;;0.22;88.47;101794.53;5045042;28;20025;-87
2022/01/14 06:11:44;;;;;;;28.27;17.87;;;;;;;0.13;89.33;101790.03;5045371;28;20447;-87
2022/01/14 06:14:09;;;;;;;25.80;13.77;;;;;;;0.11;89.25;101783.97;5044780;28;20276;-87
2022/01/14 06:16:35;;;;;;;30.80;16.90;;;;;;;0.09;89.58;101789.50;5045321;28;20037;-88
2022/01/14 06:19:00;;;;;;;29.98;17.15;;;;;;;0.25;89.26;101782.66;5045200;28;20032;-87
2022/01/14 06:21:25;;;;;;;25.65;16.30;;;;;;;0.29;88.97;101773.31;5043654;28;20040;-87
2022/01/14 06:23:51;;;;;;;31.95;17.33;;;;;;;0.18;89.23;101777.06;5045324;28;20124;-87
2022/01/14 06:26:16;;;;;;;32.35;17.98;;;;;;;0.25;89.47;101781.81;5045553;28;20087;-87
2022/01/14 06:28:43;;;;;;;34.55;17.30;;;;;;;0.41;89.43;101789.25;5044732;28;20484;-88
2022/01/14 06:31:08;;;;;;;35.92;19.50;;;;;;;0.72;88.26;101788.97;5044581;28;20033;-87
2022/01/14 06:33:34;;;;;;;31.50;18.40;;;;;;;0.77;87.25;101783.97;5051039;28;20076;-88
2022/01/14 06:35:59;;;;;;;36.63;21.20;;;;;;;0.70;86.06;101780.22;5065049;28;20276;-87
2022/01/14 06:38:24;;;;;;;29.00;17.97;;;;;;;0.77;88.38;101775.94;5046665;28;20111;-87
2022/01/14 06:40:50;;;;;;;30.48;17.05;;;;;;;0.61;87.15;101781.13;5065160;28;20281;-87
2022/01/14 06:43:15;;;;;;;33.85;18.20;;;;;;;0.47;88.91;101780.59;5064022;28;20429;-87
2022/01/14 06:45:42;;;;;;;27.50;15.90;;;;;;;0.44;88.15;101770.16;5064539;28;20484;-88
2022/01/14 06:50:52;;;;;;;35.08;17.40;;;;;;;0.76;87.84;101765.34;5061061;28;20047;-88
2022/01/14 06:53:17;;;;;;;34.78;19.52;;;;;;;0.78;87.40;101761.53;5064443;28;20554;-88
2022/01/14 06:55:43;;;;;;;29.27;16.60;;;;;;;0.52;87.81;101772.97;5063978;28;20027;-88
2022/01/14 06:58:08;;;;;;;30.45;17.58;;;;;;;0.43;88.18;101769.31;5063988;28;20048;-88
2022/01/14 07:00:34;;;;;;;27.20;15.88;;;;;;;0.65;88.53;101758.34;5064219;28;20358;-88
2022/01/14 07:03:00;;;;;;;25.80;17.38;;;;;;;0.52;88.22;101756.84;5063743;28;20487;-88
2022/01/14 07:05:26;;;;;;;33.85;20.70;;;;;;;0.68;87.78;101750.00;5062555;28;20063;-88
2022/01/14 07:07:51;;;;;;;27.23;17.33;;;;;;;0.68;88.19;101740.09;5064499;28;20103;-88
2022/01/14 07:10:17;;;;;;;28.42;14.57;;;;;;;0.75;87.84;101740.34;5068184;28;20595;-88
2022/01/14 07:12:44;;;;;;;25.63;16.48;;;;;;;0.97;86.80;101737.38;5067222;28;20028;-88
2022/01/14 07:15:14;;;;;;;31.65;17.13;;;;;;;1.15;86.57;101740.06;5068703;28;20028;-88
2022/01/14 07:17:41;;;;;;;26.00;15.38;;;;;;;0.99;87.11;101741.59;5068191;28;20024;-87
2022/01/14 07:20:12;;;;;;;26.70;14.95;;;;;;;0.97;86.50;101735.53;5069180;28;20496;-87
2022/01/14 07:22:37;;;;;;;30.73;17.88;;;;;;;0.76;87.82;101747.41;5070040;28;20035;-87
2022/01/14 07:25:03;;;;;;;30.85;15.95;;;;;;;1.07;87.83;101737.31;5088473;28;20468;-89
2022/01/14 07:27:29;;;;;;;27.80;16.67;;;;;;;0.95;87.14;101734.84;5087976;28;20028;-88
2022/01/14 07:29:55;;;;;;;28.52;17.42;;;;;;;1.04;87.81;101738.44;5080086;28;20017;-89
2022/01/14 07:32:21;;;;;;;28.98;16.45;;;;;;;1.04;86.05;101733.91;5068391;28;20028;-88
2022/01/14 07:34:47;;;;;;;31.63;16.60;;;;;;;0.73;87.52;101742.34;5049265;28;20373;-89
2022/01/14 07:37:13;;;;;;;25.35;15.43;;;;;;;0.79;87.32;101730.97;5067578;28;20032;-88
2022/01/14 07:39:38;;;;;;;28.40;16.08;;;;;;;0.86;87.56;101727.69;5067035;28;20229;-88
2022/01/14 07:42:04;;;;;;;23.95;15.50;;;;;;;0.98;87.15;101739.91;5066214;28;20044;-89
2022/01/14 07:44:29;;;;;;;24.02;15.68;;;;;;;0.91;87.33;101745.06;5067366;28;20024;-88
2022/01/14 07:46:55;;;;;;;31.38;16.15;;;;;;;0.87;87.60;101750.88;5067273;28;20453;-88
2022/01/14 07:49:20;;;;;;;37.05;18.25;;;;;;;1.26;87.13;101739.84;5067888;28;20036;-88
2022/01/14 07:54:29;;;;;;;36.42;20.98;;;;;;;1.21;86.16;101738.59;5063627;28;20036;-89
2022/01/14 07:56:57;;;;;;;31.70;17.55;;;;;;;0.99;85.83;101746.97;5067060;28;20028;-89
2022/01/14 07:59:25;;;;;;;28.90;16.23;;;;;;;0.90;86.89;101743.34;5064566;28;20087;-88
2022/01/14 08:01:54;;;;;;;33.08;21.55;;;;;;;1.01;86.37;101738.75;5049190;28;20029;-88
2022/01/14 08:04:19;;;;;;;27.73;16.20;;;;;;;1.02;86.57;101740.44;5046902;28;20503;-88
2022/01/14 08:06:47;;;;;;;30.87;16.97;;;;;;;1.12;85.89;101741.22;5047386;28;20068;-88
2022/01/14 08:09:14;;;;;;;38.40;19.98;;;;;;;0.88;87.14;101756.09;5046637;28;20400;-89
2022/01/14 08:11:40;;;;;;;31.63;18.85;;;;;;;0.77;87.32;101754.44;5047955;28;20512;-88
2022/01/14 08:14:05;;;;;;;35.55;18.90;;;;;;;1.07;87.25;101756.13;5060091;28;20036;-88
2022/01/14 08:16:31;;;;;;;44.58;22.00;;;;;;;1.08;87.43;101747.88;5067255;28;20020;-89
2022/01/14 08:18:56;;;;;;;34.42;17.98;;;;;;;0.98;87.22;101749.78;5066248;28;20107;-88
2022/01/14 08:21:21;;;;;;;35.47;19.15;;;;;;;1.16;87.42;101760.56;5069883;28;20036;-89
2022/01/14 08:23:47;;;;;;;36.72;20.33;;;;;;;1.20;86.67;101758.44;5087782;28;20024;-89
2022/01/14 08:26:12;;;;;;;34.00;20.23;;;;;;;1.10;88.29;101764.72;5087249;28;20047;-89
2022/01/14 08:28:38;;;;;;;31.90;18.30;;;;;;;1.15;87.14;101765.09;5087596;28;20020;-88
2022/01/14 08:31:03;;;;;;;40.88;24.65;;;;;;;0.81;88.95;101777.31;5075606;28;20487;-89
2022/01/14 08:33:29;;;;;;;33.85;20.17;;;;;;;1.09;88.62;101767.56;5066408;28;20047;-88
2022/01/14 08:35:54;;;;;;;30.25;19.83;;;;;;;1.13;86.54;101777.00;5066517;28;20032;-89
2022/01/14 08:38:19;;;;;;;33.40;22.42;;;;;;;1.14;87.74;101776.84;5065949;28;20100;-88
2022/01/14 08:40:45;;;;;;;36.53;24.20;;;;;;;1.16;88.03;101774.84;5050554;28;20023;-88
2022/01/14 08:43:10;;;;;;;49.47;24.55;;;;;;;0.93;88.26;101787.88;5065961;28;20399;-88
2022/01/14 08:45:36;;;;;;;39.42;21.83;;;;;;;1.01;88.01;101785.28;5067048;28;20025;-89
2022/01/14 08:48:01;;;;;;;37.20;21.60;;;;;;;1.24;87.13;101792.06;5066227;28;20016;-90
2022/01/14 08:50:30;;;;;;;70.15;24.80;;;;;;;1.06;87.79;101805.47;5049003;28;20024;-91
2022/01/14 08:52:59;;;;;;;42.55;22.95;;;;;;;1.47;87.39;101788.91;5066177;28;20035;-90
2022/01/14 08:55:24;;;;;;;35.30;20.35;;;;;;;1.75;86.51;101780.72;5066373;28;20033;-90
2022/01/14 08:57:50;;;;;;;38.08;20.45;;;;;;;1.44;87.37;101787.38;5066423;28;20027;-89
2022/01/14 09:00:18;;;;;;;49.70;23.20;;;;;;;1.48;87.25;101791.47;5058618;28;20605;-90
2022/01/14 09:02:43;;;;;;;42.15;23.88;;;;;;;1.54;88.04;101781.06;5061906;28;20032;-90
2022/01/14 09:05:09;;;;;;;31.35;18.60;;;;;;;1.60;87.56;101781.31;5065667;28;20020;-89
2022/01/14 09:07:35;;;;;;;32.65;20.80;;;;;;;1.58;87.65;101786.00;5047877;28;20048;-89
2022/01/14 09:10:01;;;;;;;33.70;22.17;;;;;;;1.34;87.87;101797.38;5065364;28;20021;-90
2022/01/14 09:15:29;;;;;;;40.05;23.52;;;;;;;1.60;86.80;101823.47;5056829;28;20047;-89
2022/01/14 09:17:54;;;;;;;37.17;23.30;;;;;;;1.58;87.73;101829.03;5065013;28;20264;-90
2022/01/14 09:20:19;;;;;;;44.53;23.15;;;;;;;1.62;88.19;101832.25;5066141;28;20035;-89
2022/01/14 09:22:49;;;;;;;36.20;21.75;;;;;;;1.82;86.90;101848.22;5065098;28;20067;-89
2022/01/14 09:25:16;;;;;;;45.72;24.50;;;;;;;1.86;87.49;101844.22;5062428;28;20099;-89
2022/01/14 09:27:42;;;;;;;52.15;27.02;;;;;;;1.78;87.29;101858.44;5064450;28;20051;-90
2022/01/14 09:30:08;;;;;;;54.65;25.33;;;;;;;1.93;87.00;101864.09;5065136;28;20028;-90
2022/01/14 09:32:33;;;;;;;67.88;27.92;;;;;;;1.94;87.66;101863.13;5062296;28;20574;-88
2022/01/14 09:35:03;;;;;;;62.88;23.83;;;;;;;1.89;88.39;101870.81;5065069;28;20076;-90
2022/01/14 09:37:29;;;;;;;58.88;24.30;;;;;;;1.61;89.72;101869.03;5065366;28;20021;-89
2022/01/14 09:39:54;;;;;;;60.08;27.90;;;;;;;1.55;90.88;101874.19;5064883;28;20120;-91
2022/01/14 09:42:19;;;;;;;60.10;22.40;;;;;;;1.71;90.42;101871.66;5064121;28;20028;-89
2022/01/14 09:44:45;;;;;;;54.42;26.05;;;;;;;1.63;90.35;101874.25;5065522;28;20468;-89
2022/01/14 09:47:16;;;;;;;114.80;26.80;;;;;;;1.55;91.02;101871.47;5065442;28;20043;-89
2022/01/14 09:49:43;;;;;;;68.38;25.73;;;;;;;1.58;91.82;101876.56;5064729;28;20363;-89
2022/01/14 09:52:08;;;;;;;58.80;32.25;;;;;;;1.72;91.69;101867.97;5065077;28;20021;-89
2022/01/14 09:54:34;;;;;;;60.55;26.02;;;;;;;1.76;91.12;101881.97;5065773;28;20750;-88
2022/01/14 09:56:59;;;;;;;64.00;28.90;;;;;;;1.84;90.96;101873.13;5065498;28;20553;-88
2022/01/14 09:59:24;;;;;;;54.83;26.15;;;;;;;1.87;90.70;101886.28;5064702;28;20079;-89
2022/01/14 10:01:50;;;;;;;67.47;25.90;;;;;;;1.81;91.33;101878.81;5064735;28;20467;-89
2022/01/14 10:04:19;;;;;;;154.98;33.70;;;;;;;1.73;91.07;101876.88;5046924;28;20494;-89
2022/01/14 10:06:51;;;;;;;79.50;28.65;;;;;;;1.89;91.94;101870.81;5065031;28;20103;-91
2022/01/14 10:09:21;;;;;;;73.65;29.42;;;;;;;1.74;92.69;101868.66;5065014;28;20042;-89
2022/01/14 10:12:13;;;;;;;79.80;30.55;;;;;;;1.84;92.25;101862.34;5065120;28;20044;-88
2022/01/14 10:14:51;;;;;;;84.97;27.58;;;;;;;1.69;92.22;101867.44;5065241;28;20093;-89
2022/01/14 10:17:17;;;;;;;65.95;30.88;;;;;;;1.85;91.92;101858.69;5064867;28;20035;-89
2022/01/14 10:19:44;;;;;;;73.75;27.13;;;;;;;1.90;91.79;101860.88;5064953;28;20435;-88
2022/01/14 10:22:32;;;;;;;55.15;24.55;;;;;;;1.91;91.74;101851.81;5064951;28;20028;-89
2022/01/14 10:25:15;;;;;;;76.68;24.65;;;;;;;2.01;91.63;101846.34;5065630;28;20552;-88
2022/01/14 10:27:42;;;;;;;92.07;28.35;;;;;;;1.89;91.84;101837.69;5064678;28;20069;-89
2022/01/14 10:30:20;;;;;;;110.13;30.33;;;;;;;1.74;92.86;101833.72;5062877;28;20036;-89
2022/01/14 10:32:59;;;;;;;75.88;28.08;;;;;;;1.72;93.10;101837.53;5052396;28;20025;-88
2022/01/14 10:35:30;;;;;;;78.07;27.00;;;;;;;1.90;92.63;101845.59;5044900;28;20033;-89
2022/01/14 10:37:59;;;;;;;66.05;27.92;;;;;;;1.89;92.86;101848.44;5045240;28;20032;-90
2022/01/14 10:40:26;;;;;;;61.42;24.92;;;;;;;2.00;92.17;101844.66;5044685;28;20033;-89
2022/01/14 10:43:00;;;;;;;64.32;26.42;;;;;;;1.87;92.52;101843.22;5048589;28;20102;-90
2022/01/14 10:45:28;;;;;;;43.40;21.95;;;;;;;1.90;92.76;101833.97;5068655;28;20029;-88
2022/01/14 10:48:02;;;;;;;54.25;24.05;;;;;;;2.02;92.72;101842.66;5068688;28;20029;-89
2022/01/14 10:50:37;;;;;;;47.65;23.38;;;;;;;2.15;92.34;101837.72;5068365;28;20040;-88
2022/01/14 10:53:09;;;;;;;59.42;23.60;;;;;;;2.15;91.79;101840.41;5065213;28;20839;-89
2022/01/14 10:55:39;;;;;;;52.88;25.25;;;;;;;2.18;92.13;101817.69;5058669;28;20036;-89
2022/01/14 10:58:11;;;;;;;57.08;23.83;;;;;;;2.26;92.27;101822.31;5066156;28;20490;-89
2022/01/14 11:00:43;;;;;;;43.03;23.45;;;;;;;2.26;92.23;101822.31;5053221;28;20544;-89
2022/01/14 11:03:09;;;;;;;61.47;23.20;;;;;;;2.20;91.87;101830.00;5067090;28;20036;-89
2022/01/14 11:05:35;;;;;;;46.80;21.88;;;;;;;2.20;92.54;101824.63;5049334;28;20475;-89
2022/01/14 11:08:01;;;;;;;46.38;21.75;;;;;;;2.30;92.32;101815.59;5062786;28;20071;-89
2022/01/14 11:10:29;;;;;;;53.40;24.40;;;;;;;2.26;92.53;101816.94;5061052;28;20079;-89
2022/01/14 11:12:57;;;;;;;57.88;26.45;;;;;;;2.26;92.46;101796.22;5063492;28;20571;-88
2022/01/14 11:15:25;;;;;;;41.38;21.27;;;;;;;2.41;91.83;101792.94;5066811;28;20104;-88
2022/01/14 11:23:38;;;;;;;47.40;22.73;;;;;;;2.55;91.80;101792.34;5067493;28;20494;-89
2022/01/14 11:26:07;;;;;;;41.38;19.85;;;;;;;2.62;91.06;101786.31;5067410;28;20029;-88
2022/01/14 11:28:39;;;;;;;46.08;22.75;;;;;;;2.73;91.18;101795.94;5066447;28;20395;-89
2022/01/14 11:31:25;;;;;;;39.53;20.85;;;;;;;2.71;90.94;101798.78;5067159;28;20029;-89
2022/01/14 11:33:50;;;;;;;36.90;21.02;;;;;;;2.68;91.38;101791.88;5059160;28;20180;-88
2022/01/14 11:36:16;;;;;;;34.60;18.58;;;;;;;2.67;91.38;101798.28;5063922;28;20029;-90
2022/01/14 11:38:44;;;;;;;42.15;20.50;;;;;;;2.71;91.56;101789.88;5053011;28;20469;-88
2022/01/14 11:41:13;;;;;;;41.83;22.88;;;;;;;2.90;90.83;101800.41;5052845;28;20025;-89
2022/01/14 11:43:43;;;;;;;33.38;19.73;;;;;;;2.68;90.75;101799.13;5055548;28;20084;-89
2022/01/14 11:46:13;;;;;;;30.08;17.45;;;;;;;2.82;91.40;101800.38;5062875;28;20136;-88
2022/01/14 11:48:52;;;;;;;37.13;18.17;;;;;;;2.76;90.78;101801.00;5028385;28;20044;-88
2022/01/14 11:51:18;;;;;;;33.03;18.33;;;;;;;3.00;90.36;101796.72;5047201;28;20068;-89
2022/01/14 11:54:03;;;;;;;36.03;19.25;;;;;;;2.88;90.39;101794.34;5046567;28;20556;-89
2022/01/14 11:56:31;;;;;;;32.95;18.58;;;;;;;2.90;91.00;101792.31;5046706;28;20122;-90
2022/01/14 11:59:18;;;;;;;33.00;18.90;;;;;;;2.91;90.52;101799.38;5046603;28;20132;-89
2022/01/14 12:01:55;;;;;;;42.88;19.27;;;;;;;2.90;91.04;101792.31;5029201;28;20030;-90
2022/01/14 12:04:21;;;;;;;34.03;19.38;;;;;;;2.89;91.27;101790.63;5026379;28;20030;-88
2022/01/14 12:06:50;;;;;;;41.55;18.92;;;;;;;2.89;91.04;101787.91;5027015;28;20236;-89